Time;durP1;ratioP1;P1;durP2;ratioP2;P2;SDS_P1;SDS_P2;PMS_P1;PMS_P2;Temp;Humidity;BMP_temperature;BMP_pressure;BME280_temperature;BME280_humidity;BME280_pressure;Samples;Min_cycle;Max_cycle;Signal;HPM_P1;HPM_P2
2021/10/03 00:17:18;;;;;;;4.55;3.55;;;;;;;;;;4698829;28;20087;-66
2021/10/03 00:19:44;;;;;;;5.75;3.70;;;;;;;;;;4161627;34;20115;-70
2021/10/03 00:22:10;;;;;;;3.92;3.25;;;;;;;;;;4162109;34;20099;-66
2021/10/03 00:24:36;;;;;;;6.53;3.67;;;;;;;;;;4161648;34;20140;-71
2021/10/03 00:27:02;;;;;;;5.93;3.67;;;;;;;;;;4163106;34;20118;-65
2021/10/03 00:29:28;;;;;;;7.03;3.80;;;;;;;;;;4163482;34;20462;-70
2021/10/03 00:31:54;;;;;;;4.75;3.20;;;;;;;;;;4150700;34;20137;-71
2021/10/03 00:34:20;;;;;;;5.62;3.17;;;;;;;;;;4163272;34;20638;-71
2021/10/03 00:36:46;;;;;;;4.57;3.70;;;;;;;;;;4162902;34;20142;-70
2021/10/03 00:39:12;;;;;;;5.53;3.70;;;;;;;;;;4162966;34;20107;-70
2021/10/03 00:41:38;;;;;;;6.10;3.35;;;;;;;;;;4163128;34;20125;-69
2021/10/03 00:44:05;;;;;;;6.05;3.70;;;;;;;;;;4161721;34;20170;-70
2021/10/03 00:46:30;;;;;;;4.57;3.22;;;;;;;;;;4163083;34;20295;-64
2021/10/03 00:48:56;;;;;;;4.60;3.50;;;;;;;;;;4161392;34;20138;-65
2021/10/03 00:51:22;;;;;;;4.70;3.72;;;;;;;;;;4161704;34;20122;-64
2021/10/03 00:53:48;;;;;;;4.68;3.47;;;;;;;;;;4161363;34;20118;-67
2021/10/03 00:56:15;;;;;;;4.95;3.40;;;;;;;;;;4163146;34;20203;-66
2021/10/03 00:58:41;;;;;;;5.93;4.18;;;;;;;;;;4161837;34;20139;-67
2021/10/03 01:01:08;;;;;;;4.90;3.60;;;;;;;;;;4164910;34;20630;-67
2021/10/03 01:03:35;;;;;;;5.43;3.67;;;;;;;;;;4152128;34;20119;-71
2021/10/03 01:06:02;;;;;;;5.25;3.42;;;;;;;;;;4163730;34;20127;-67
2021/10/03 01:08:28;;;;;;;4.20;3.50;;;;;;;;;;4165020;34;20474;-67
2021/10/03 01:10:54;;;;;;;4.28;3.22;;;;;;;;;;4164895;34;20474;-66
2021/10/03 01:13:22;;;;;;;5.12;3.50;;;;;;;;;;4163352;34;20226;-71
2021/10/03 01:15:49;;;;;;;5.00;4.00;;;;;;;;;;4164847;34;20128;-67
2021/10/03 01:18:15;;;;;;;4.85;3.83;;;;;;;;;;4164444;34;20122;-70
2021/10/03 01:20:41;;;;;;;4.72;3.37;;;;;;;;;;4152179;34;20118;-66
2021/10/03 01:23:08;;;;;;;4.03;3.55;;;;;;;;;;4163371;34;20505;-67
2021/10/03 01:25:36;;;;;;;5.32;4.25;;;;;;;;;;4164824;34;20114;-71
2021/10/03 01:28:02;;;;;;;4.50;3.42;;;;;;;;;;4163238;34;20515;-67
2021/10/03 01:30:28;;;;;;;4.57;3.65;;;;;;;;;;4164845;34;20086;-67
2021/10/03 01:32:54;;;;;;;4.60;3.78;;;;;;;;;;4163482;34;20513;-67
2021/10/03 01:35:20;;;;;;;4.57;4.10;;;;;;;;;;4163340;34;20322;-67
2021/10/03 01:37:49;;;;;;;5.53;3.87;;;;;;;;;;4163000;34;20130;-71
2021/10/03 01:40:15;;;;;;;7.05;3.95;;;;;;;;;;4163369;34;20178;-67
2021/10/03 01:42:41;;;;;;;5.45;3.78;;;;;;;;;;4164449;34;20102;-66
2021/10/03 01:45:09;;;;;;;8.38;4.03;;;;;;;;;;4164444;34;20149;-67
2021/10/03 01:47:53;;;;;;;6.28;4.35;;;;;;;;;;4164790;34;20122;-70
2021/10/03 01:50:19;;;;;;;4.62;3.55;;;;;;;;;;4153467;34;20113;-65
2021/10/03 01:52:45;;;;;;;5.55;4.20;;;;;;;;;;4164490;34;20208;-65
2021/10/03 01:55:14;;;;;;;5.65;3.92;;;;;;;;;;4164400;34;20551;-65
2021/10/03 01:57:40;;;;;;;6.18;4.03;;;;;;;;;;4163279;34;20458;-65
2021/10/03 02:00:08;;;;;;;5.30;3.85;;;;;;;;;;4164636;34;20109;-70
2021/10/03 02:02:34;;;;;;;7.22;4.25;;;;;;;;;;4164561;34;20108;-70
2021/10/03 02:05:00;;;;;;;5.00;4.10;;;;;;;;;;4164506;34;20118;-67
2021/10/03 02:07:28;;;;;;;5.82;4.25;;;;;;;;;;4163068;34;20271;-71
2021/10/03 02:09:55;;;;;;;5.55;4.37;;;;;;;;;;4162806;34;20121;-65
2021/10/03 02:12:21;;;;;;;6.20;3.83;;;;;;;;;;4164262;34;20280;-65
2021/10/03 02:14:46;;;;;;;6.12;4.62;;;;;;;;;;4164281;34;20119;-65
2021/10/03 02:17:12;;;;;;;5.18;4.18;;;;;;;;;;4164194;34;20565;-67
2021/10/03 02:19:39;;;;;;;6.53;3.90;;;;;;;;;;4164172;34;20142;-66
2021/10/03 02:22:05;;;;;;;4.43;3.58;;;;;;;;;;4151592;34;20113;-67
2021/10/03 02:24:31;;;;;;;6.37;3.80;;;;;;;;;;4151484;34;20095;-65
2021/10/03 02:26:57;;;;;;;4.68;4.12;;;;;;;;;;4163018;34;20160;-70
2021/10/03 02:29:23;;;;;;;6.45;5.10;;;;;;;;;;4164179;34;20117;-70
2021/10/03 02:31:49;;;;;;;6.00;4.40;;;;;;;;;;4164437;34;20197;-71
2021/10/03 02:34:15;;;;;;;5.55;4.53;;;;;;;;;;4163087;34;20122;-71
2021/10/03 02:36:41;;;;;;;6.75;4.78;;;;;;;;;;4164192;34;20498;-71
2021/10/03 02:39:07;;;;;;;7.10;5.40;;;;;;;;;;4151679;34;20141;-71
2021/10/03 02:41:33;;;;;;;5.65;4.47;;;;;;;;;;4164690;34;20106;-71
2021/10/03 02:43:59;;;;;;;8.20;4.65;;;;;;;;;;4163994;34;20212;-66
2021/10/03 02:46:25;;;;;;;7.40;4.32;;;;;;;;;;4162662;34;20106;-67
2021/10/03 02:48:51;;;;;;;5.57;4.47;;;;;;;;;;4163135;34;20454;-67
2021/10/03 02:51:21;;;;;;;5.47;3.35;;;;;;;;;;4162905;34;20558;-70
2021/10/03 02:53:48;;;;;;;4.80;3.25;;;;;;;;;;4164333;34;20245;-71
2021/10/03 02:56:17;;;;;;;6.87;4.10;;;;;;;;;;4163024;34;20130;-65
2021/10/03 02:58:43;;;;;;;6.00;4.43;;;;;;;;;;4162585;34;20195;-65
2021/10/03 03:01:09;;;;;;;5.70;3.87;;;;;;;;;;4164055;34;20103;-65
2021/10/03 03:03:36;;;;;;;3.65;3.22;;;;;;;;;;4163710;34;20204;-74
2021/10/03 03:06:04;;;;;;;7.80;3.78;;;;;;;;;;4163179;34;20537;-70
2021/10/03 03:08:30;;;;;;;5.10;3.87;;;;;;;;;;4164195;34;20090;-66
2021/10/03 03:10:56;;;;;;;9.57;4.07;;;;;;;;;;4163800;34;20511;-69
2021/10/03 03:13:22;;;;;;;4.85;4.35;;;;;;;;;;4163838;34;20190;-70
2021/10/03 03:15:48;;;;;;;6.43;4.12;;;;;;;;;;4163813;34;20102;-64
2021/10/03 03:18:14;;;;;;;4.93;3.85;;;;;;;;;;4163435;34;20141;-64
2021/10/03 03:20:40;;;;;;;5.68;4.10;;;;;;;;;;4163538;34;20589;-64
2021/10/03 03:23:06;;;;;;;5.12;3.97;;;;;;;;;;4162200;34;20142;-69
2021/10/03 03:25:32;;;;;;;5.15;4.15;;;;;;;;;;4162283;34;20212;-69
2021/10/03 03:27:58;;;;;;;7.20;4.12;;;;;;;;;;4164010;34;20641;-72
2021/10/03 03:30:23;;;;;;;4.93;4.18;;;;;;;;;;4162507;34;20109;-72
2021/10/03 03:32:50;;;;;;;5.07;3.97;;;;;;;;;;4151714;34;20131;-72
2021/10/03 03:35:15;;;;;;;6.15;3.85;;;;;;;;;;4162419;34;20138;-67
2021/10/03 03:37:42;;;;;;;4.75;3.70;;;;;;;;;;4163557;34;20118;-66
2021/10/03 03:40:09;;;;;;;5.82;3.60;;;;;;;;;;4162164;34;20130;-66
2021/10/03 03:42:35;;;;;;;6.53;4.15;;;;;;;;;;4163531;34;20596;-66
2021/10/03 03:45:01;;;;;;;5.47;4.05;;;;;;;;;;4163680;34;20184;-66
2021/10/03 03:47:27;;;;;;;6.43;3.92;;;;;;;;;;4163566;34;20528;-67
2021/10/03 03:49:53;;;;;;;5.40;4.05;;;;;;;;;;4163412;34;20447;-67
2021/10/03 03:52:19;;;;;;;6.85;3.92;;;;;;;;;;4163927;34;20674;-64
2021/10/03 03:54:45;;;;;;;6.68;3.75;;;;;;;;;;4162020;34;20601;-67
2021/10/03 03:57:12;;;;;;;5.53;4.12;;;;;;;;;;4163174;34;20114;-67
2021/10/03 03:59:38;;;;;;;6.28;4.12;;;;;;;;;;4161938;34;20103;-65
2021/10/03 04:02:04;;;;;;;5.37;4.18;;;;;;;;;;4163318;34;20528;-65
2021/10/03 04:04:29;;;;;;;7.00;4.50;;;;;;;;;;4163252;34;20617;-65
2021/10/03 04:06:55;;;;;;;8.23;5.07;;;;;;;;;;4150607;34;20462;-65
2021/10/03 04:09:21;;;;;;;6.47;4.70;;;;;;;;;;4162181;34;20110;-65
2021/10/03 04:11:47;;;;;;;6.18;4.78;;;;;;;;;;4163432;34;20111;-69
2021/10/03 04:14:13;;;;;;;5.40;4.30;;;;;;;;;;4161981;34;20130;-70
2021/10/03 04:16:39;;;;;;;8.63;4.50;;;;;;;;;;4161607;34;20122;-68
2021/10/03 04:19:05;;;;;;;6.82;4.37;;;;;;;;;;4162981;34;20300;-67
2021/10/03 04:21:31;;;;;;;6.68;4.90;;;;;;;;;;4163119;34;20206;-70
2021/10/03 04:23:57;;;;;;;4.75;4.28;;;;;;;;;;4150638;34;20199;-69
2021/10/03 04:26:24;;;;;;;5.22;3.95;;;;;;;;;;4163114;34;20109;-65
2021/10/03 04:28:51;;;;;;;9.25;4.80;;;;;;;;;;4163559;34;20542;-72
2021/10/03 04:31:18;;;;;;;5.53;4.00;;;;;;;;;;4162208;34;20208;-72
2021/10/03 04:33:44;;;;;;;13.95;8.73;;;;;;;;;;4163785;34;20103;-73
2021/10/03 04:36:10;;;;;;;16.58;9.65;;;;;;;;;;4164464;34;20101;-73
2021/10/03 04:38:37;;;;;;;12.68;8.15;;;;;;;;;;4165746;34;20203;-73
2021/10/03 04:41:03;;;;;;;8.52;5.35;;;;;;;;;;4165589;34;20202;-73
2021/10/03 04:43:29;;;;;;;10.45;6.97;;;;;;;;;;4164361;34;20114;-73
2021/10/03 04:45:55;;;;;;;11.40;6.93;;;;;;;;;;4165208;34;20548;-73
2021/10/03 04:48:21;;;;;;;8.23;5.43;;;;;;;;;;4164024;34;20118;-72
2021/10/03 04:50:48;;;;;;;8.85;4.80;;;;;;;;;;4165206;34;20114;-65
2021/10/03 04:53:14;;;;;;;7.32;4.93;;;;;;;;;;4152192;34;20527;-64
2021/10/03 04:55:40;;;;;;;6.82;5.00;;;;;;;;;;4165118;34;20146;-64
2021/10/03 04:58:06;;;;;;;5.32;4.45;;;;;;;;;;4163539;34;20316;-65
2021/10/03 05:00:32;;;;;;;5.72;4.75;;;;;;;;;;4165097;34;20133;-67
2021/10/03 05:02:58;;;;;;;8.00;5.05;;;;;;;;;;4164995;34;20130;-69
2021/10/03 05:05:24;;;;;;;5.85;4.12;;;;;;;;;;4164826;34;20126;-68
2021/10/03 05:07:50;;;;;;;5.62;4.43;;;;;;;;;;4165394;34;20546;-73
2021/10/03 05:10:16;;;;;;;5.72;4.45;;;;;;;;;;4164917;34;20473;-73
2021/10/03 05:12:42;;;;;;;11.60;4.30;;;;;;;;;;4164618;34;20121;-67
2021/10/03 05:15:09;;;;;;;5.90;4.28;;;;;;;;;;4163543;34;20122;-66
2021/10/03 05:17:38;;;;;;;7.30;4.43;;;;;;;;;;4164631;34;20190;-67
2021/10/03 05:20:04;;;;;;;6.18;4.22;;;;;;;;;;4164789;34;20141;-69
2021/10/03 05:22:30;;;;;;;5.43;4.25;;;;;;;;;;4164803;34;20545;-73
2021/10/03 05:24:56;;;;;;;6.65;4.35;;;;;;;;;;4165094;34;20102;-67
2021/10/03 05:27:22;;;;;;;7.10;4.20;;;;;;;;;;4164664;34;20712;-67
2021/10/03 05:29:48;;;;;;;6.53;4.75;;;;;;;;;;4164972;34;20099;-67
2021/10/03 05:32:14;;;;;;;12.35;5.00;;;;;;;;;;4163186;34;20215;-67
2021/10/03 05:34:40;;;;;;;7.18;5.15;;;;;;;;;;4164842;34;20115;-67
2021/10/03 05:37:06;;;;;;;6.65;4.97;;;;;;;;;;4163076;34;20122;-67
2021/10/03 05:39:32;;;;;;;11.43;5.32;;;;;;;;;;4151935;34;20536;-67
2021/10/03 05:41:58;;;;;;;8.52;4.25;;;;;;;;;;4163371;34;20142;-72
2021/10/03 05:44:25;;;;;;;8.00;5.60;;;;;;;;;;4163215;34;20132;-65
2021/10/03 05:46:51;;;;;;;9.10;4.93;;;;;;;;;;4162956;34;20582;-65
2021/10/03 05:49:17;;;;;;;11.98;5.18;;;;;;;;;;4164769;34;20292;-67
2021/10/03 05:51:43;;;;;;;8.50;6.07;;;;;;;;;;4163077;34;20548;-67
2021/10/03 05:54:09;;;;;;;7.22;4.35;;;;;;;;;;4163108;34;20125;-67
2021/10/03 05:56:35;;;;;;;9.57;4.80;;;;;;;;;;4151738;34;20115;-67
2021/10/03 05:59:02;;;;;;;7.15;5.37;;;;;;;;;;4164606;34;20509;-67
2021/10/03 06:01:28;;;;;;;6.03;4.22;;;;;;;;;;4163056;34;20126;-68
2021/10/03 06:03:55;;;;;;;8.93;4.80;;;;;;;;;;4164534;34;20119;-68
2021/10/03 06:06:21;;;;;;;6.82;5.40;;;;;;;;;;4164479;34;20548;-68
2021/10/03 06:08:47;;;;;;;6.22;4.93;;;;;;;;;;4164336;34;20261;-71
2021/10/03 06:11:13;;;;;;;9.93;5.90;;;;;;;;;;4164788;34;20106;-70
2021/10/03 06:13:40;;;;;;;6.32;5.10;;;;;;;;;;4164324;34;20121;-69
2021/10/03 06:16:07;;;;;;;8.50;5.10;;;;;;;;;;4164482;34;20119;-70
2021/10/03 06:18:33;;;;;;;7.80;4.97;;;;;;;;;;4162662;34;20111;-70
2021/10/03 06:20:59;;;;;;;7.57;5.55;;;;;;;;;;4164211;34;20126;-69
2021/10/03 06:23:25;;;;;;;8.38;5.55;;;;;;;;;;4164206;34;20111;-69
2021/10/03 06:25:51;;;;;;;9.25;7.40;;;;;;;;;;4164324;34;20565;-68
2021/10/03 06:28:17;;;;;;;9.45;5.97;;;;;;;;;;4163298;34;20122;-66
2021/10/03 06:30:43;;;;;;;7.75;6.28;;;;;;;;;;4163258;34;20541;-68
2021/10/03 06:33:09;;;;;;;7.75;5.93;;;;;;;;;;4165034;34;20530;-66
2021/10/03 06:35:35;;;;;;;10.02;6.93;;;;;;;;;;4163577;34;20146;-67
2021/10/03 06:38:01;;;;;;;8.73;5.93;;;;;;;;;;4164841;34;20118;-66
2021/10/03 06:40:27;;;;;;;9.07;6.32;;;;;;;;;;4164675;34;20111;-66
2021/10/03 06:42:54;;;;;;;12.82;5.97;;;;;;;;;;4167850;34;20125;-64
2021/10/03 06:45:21;;;;;;;12.30;5.15;;;;;;;;;;4163535;34;20178;-66
2021/10/03 06:47:47;;;;;;;7.95;5.15;;;;;;;;;;4162483;34;20142;-70
2021/10/03 06:50:13;;;;;;;6.97;5.18;;;;;;;;;;4162632;34;20542;-69
2021/10/03 06:52:39;;;;;;;7.53;5.72;;;;;;;;;;4164129;34;20192;-69
2021/10/03 06:55:05;;;;;;;11.50;5.40;;;;;;;;;;4163887;34;20158;-69
2021/10/03 06:57:31;;;;;;;6.12;5.00;;;;;;;;;;4162853;34;20219;-70
2021/10/03 06:59:57;;;;;;;7.55;5.65;;;;;;;;;;4162491;34;20134;-70
2021/10/03 07:02:24;;;;;;;9.88;5.53;;;;;;;;;;4162359;34;20130;-69
2021/10/03 07:04:50;;;;;;;8.23;5.68;;;;;;;;;;4164350;34;20514;-70
2021/10/03 07:07:17;;;;;;;8.30;5.47;;;;;;;;;;4164152;34;20106;-70
2021/10/03 07:09:43;;;;;;;8.75;6.37;;;;;;;;;;4162505;34;20099;-66
2021/10/03 07:12:09;;;;;;;9.48;5.50;;;;;;;;;;4162575;34;20098;-66
2021/10/03 07:16:33;;;;;;;10.00;5.53;;;;;;;;;;3767087;37;20083;-67
2021/10/03 07:19:00;;;;;;;9.73;6.18;;;;;;;;;;4359914;32;20104;-68
2021/10/03 07:21:26;;;;;;;12.48;7.93;;;;;;;;;;4359333;32;20204;-68
2021/10/03 07:23:52;;;;;;;9.32;6.40;;;;;;;;;;4359504;32;20110;-71
2021/10/03 07:26:18;;;;;;;9.10;7.22;;;;;;;;;;4359631;32;20105;-71
2021/10/03 07:28:44;;;;;;;12.95;8.40;;;;;;;;;;4359704;32;20523;-71
2021/10/03 07:31:10;;;;;;;6.62;5.50;;;;;;;;;;4333557;32;20132;-72
2021/10/03 07:33:36;;;;;;;8.45;5.97;;;;;;;;;;4359708;32;20098;-71
2021/10/03 07:36:02;;;;;;;8.05;5.37;;;;;;;;;;4359528;32;20255;-70
2021/10/03 07:38:28;;;;;;;7.20;5.10;;;;;;;;;;4359353;32;20192;-68
2021/10/03 07:40:54;;;;;;;6.05;4.82;;;;;;;;;;4359461;32;20212;-67
2021/10/03 07:43:20;;;;;;;6.78;5.18;;;;;;;;;;4359160;32;20182;-68
2021/10/03 07:45:46;;;;;;;6.75;5.05;;;;;;;;;;4345857;32;20528;-71
2021/10/03 07:48:12;;;;;;;7.15;5.05;;;;;;;;;;4345705;32;20114;-68
2021/10/03 07:50:39;;;;;;;7.97;5.32;;;;;;;;;;4359524;32;20099;-70
2021/10/03 07:53:05;;;;;;;9.77;5.10;;;;;;;;;;4345242;32;20505;-71
2021/10/03 07:55:31;;;;;;;5.70;4.80;;;;;;;;;;4345377;32;20194;-71
2021/10/03 07:57:59;;;;;;;9.00;5.22;;;;;;;;;;4358968;32;20125;-71
2021/10/03 08:00:25;;;;;;;5.80;4.43;;;;;;;;;;4333464;32;20200;-71
2021/10/03 08:02:51;;;;;;;8.15;5.00;;;;;;;;;;4346094;32;20472;-71
2021/10/03 08:05:17;;;;;;;8.23;5.25;;;;;;;;;;4360395;32;20112;-71
2021/10/03 08:07:43;;;;;;;5.57;4.60;;;;;;;;;;4359331;32;20137;-71
2021/10/03 08:10:09;;;;;;;9.27;6.10;;;;;;;;;;4358944;32;20469;-67
2021/10/03 08:12:35;;;;;;;10.07;5.45;;;;;;;;;;4345183;32;20209;-67
2021/10/03 08:15:01;;;;;;;9.20;6.05;;;;;;;;;;4358924;32;20113;-71
2021/10/03 08:17:27;;;;;;;8.82;5.97;;;;;;;;;;4359347;32;20117;-68
2021/10/03 08:19:53;;;;;;;9.93;5.95;;;;;;;;;;4358555;32;20102;-66
2021/10/03 08:22:19;;;;;;;8.40;5.95;;;;;;;;;;4358663;32;20101;-66
2021/10/03 08:24:45;;;;;;;8.00;5.97;;;;;;;;;;4345153;32;20118;-66
2021/10/03 08:27:10;;;;;;;8.98;6.15;;;;;;;;;;4351957;32;20134;-65
2021/10/03 08:29:36;;;;;;;9.48;6.03;;;;;;;;;;4348874;33;20525;-65
2021/10/03 08:32:02;;;;;;;12.52;6.07;;;;;;;;;;4348787;33;20126;-65
2021/10/03 08:34:28;;;;;;;11.40;6.15;;;;;;;;;;4348953;33;20110;-64
2021/10/03 08:36:54;;;;;;;8.88;6.65;;;;;;;;;;4348667;33;20137;-64
2021/10/03 08:39:20;;;;;;;9.80;7.00;;;;;;;;;;4348759;33;20118;-64
2021/10/03 08:41:46;;;;;;;10.88;6.72;;;;;;;;;;4348576;33;20127;-64
2021/10/03 08:44:13;;;;;;;7.85;5.68;;;;;;;;;;4346505;33;20129;-65
2021/10/03 08:46:40;;;;;;;6.65;5.60;;;;;;;;;;4348890;33;20197;-65
2021/10/03 08:49:06;;;;;;;7.80;5.50;;;;;;;;;;4335336;33;20115;-65
2021/10/03 08:51:32;;;;;;;7.35;5.00;;;;;;;;;;4335267;33;20118;-65
2021/10/03 08:53:58;;;;;;;10.13;6.22;;;;;;;;;;4348810;33;20126;-66
2021/10/03 08:56:24;;;;;;;6.37;5.30;;;;;;;;;;4348491;33;20201;-65
2021/10/03 08:58:51;;;;;;;10.27;6.47;;;;;;;;;;4335035;33;20131;-68
2021/10/03 09:01:23;;;;;;;8.95;6.12;;;;;;;;;;4349111;33;20678;-69
2021/10/03 09:03:51;;;;;;;10.02;5.97;;;;;;;;;;4335219;33;20094;-64
2021/10/03 09:06:17;;;;;;;8.68;5.82;;;;;;;;;;4335188;33;20118;-64
2021/10/03 09:08:45;;;;;;;9.80;5.55;;;;;;;;;;4348437;33;20536;-63
2021/10/03 09:11:15;;;;;;;8.80;6.12;;;;;;;;;;4348818;33;20126;-65
2021/10/03 09:13:49;;;;;;;8.82;6.75;;;;;;;;;;4334854;33;20106;-64
2021/10/03 09:16:25;;;;;;;10.73;8.13;;;;;;;;;;4348781;33;20555;-64
2021/10/03 09:18:53;;;;;;;10.98;8.77;;;;;;;;;;4348652;33;20453;-64
2021/10/03 09:21:28;;;;;;;10.98;7.20;;;;;;;;;;4322967;33;20449;-67
2021/10/03 09:24:03;;;;;;;9.50;7.03;;;;;;;;;;4348485;33;20303;-65
2021/10/03 09:26:29;;;;;;;;;;;;;;;;;;4348908;33;20098;-67
2021/10/03 09:28:55;;;;;;;7.78;5.82;;;;;;;;;;4348661;33;19984;-67
2021/10/03 09:31:21;;;;;;;9.38;7.12;;;;;;;;;;4335221;33;20133;-70
2021/10/03 09:33:48;;;;;;;10.07;6.45;;;;;;;;;;4335043;33;20110;-67
2021/10/03 09:39:09;;;;;;;9.57;6.50;;;;;;;;;;4361108;27;20130;-70
2021/10/03 09:41:41;;;;;;;10.43;7.07;;;;;;;;;;4303809;33;20179;-71
2021/10/03 09:44:12;;;;;;;9.77;6.78;;;;;;;;;;4301832;33;20122;-72
2021/10/03 09:46:52;;;;;;;10.07;6.75;;;;;;;;;;4290167;33;20333;-72
2021/10/03 09:49:27;;;;;;;7.53;5.75;;;;;;;;;;4290554;33;20311;-71
2021/10/03 09:51:56;;;;;;;6.95;5.57;;;;;;;;;;4301300;33;20124;-69
2021/10/03 09:54:24;;;;;;;8.32;5.28;;;;;;;;;;4302385;33;20199;-70
2021/10/03 09:56:50;;;;;;;6.05;4.72;;;;;;;;;;4300319;33;20119;-69
2021/10/03 09:59:17;;;;;;;6.53;4.85;;;;;;;;;;4300020;33;20126;-71
2021/10/03 10:01:46;;;;;;;7.60;5.25;;;;;;;;;;4286174;33;20254;-71
2021/10/03 10:04:14;;;;;;;5.72;4.68;;;;;;;;;;4287605;33;20119;-73
2021/10/03 10:06:40;;;;;;;7.80;5.10;;;;;;;;;;4288226;33;20471;-74
2021/10/03 10:09:13;;;;;;;8.02;5.10;;;;;;;;;;4294670;33;20123;-77
2021/10/03 10:11:57;;;;;;;7.65;5.05;;;;;;;;;;4278852;33;20513;-78
2021/10/03 10:14:39;;;;;;;8.32;5.28;;;;;;;;;;4291871;33;20119;-68
2021/10/03 10:17:32;;;;;;;7.15;5.60;;;;;;;;;;4303728;33;20474;-68
2021/10/03 10:19:59;;;;;;;10.88;5.47;;;;;;;;;;4301727;33;20090;-68
2021/10/03 10:22:25;;;;;;;7.05;5.25;;;;;;;;;;4291400;33;20103;-68
2021/10/03 10:24:55;;;;;;;8.10;5.95;;;;;;;;;;4302432;33;20104;-70
2021/10/03 10:27:21;;;;;;;9.27;5.57;;;;;;;;;;4264046;33;20100;-72
2021/10/03 10:30:08;;;;;;;5.87;4.50;;;;;;;;;;4287286;33;20282;-69
2021/10/03 10:32:58;;;;;;;8.57;4.68;;;;;;;;;;4287287;33;20547;-75
2021/10/03 10:35:26;;;;;;;6.78;4.50;;;;;;;;;;4287327;33;20107;-72
2021/10/03 10:37:55;;;;;;;7.15;4.60;;;;;;;;;;4275423;33;20132;-73
2021/10/03 10:40:25;;;;;;;6.32;4.82;;;;;;;;;;4291440;33;20457;-71
2021/10/03 10:43:03;;;;;;;5.57;4.93;;;;;;;;;;4301370;33;20241;-69
2021/10/03 10:45:36;;;;;;;5.32;4.50;;;;;;;;;;4290514;33;20092;-68
2021/10/03 10:48:15;;;;;;;7.12;5.82;;;;;;;;;;4289298;33;20109;-65
2021/10/03 10:50:44;;;;;;;5.57;4.75;;;;;;;;;;4289190;33;20238;-65
2021/10/03 10:53:28;;;;;;;6.90;5.40;;;;;;;;;;4301212;33;20087;-66
2021/10/03 10:56:10;;;;;;;7.93;4.65;;;;;;;;;;4312551;33;20166;-68
2021/10/03 10:59:02;;;;;;;8.88;5.97;;;;;;;;;;4318720;33;20095;-68
2021/10/03 11:01:30;;;;;;;8.60;6.15;;;;;;;;;;4308849;33;20118;-68
2021/10/03 11:04:35;;;;;;;10.70;6.15;;;;;;;;;;4318166;33;20122;-67
2021/10/03 11:07:06;;;;;;;8.68;6.50;;;;;;;;;;4314096;33;20461;-68
2021/10/03 11:09:33;;;;;;;12.25;5.57;;;;;;;;;;4292234;33;20120;-67
2021/10/03 11:12:00;;;;;;;14.23;7.10;;;;;;;;;;4318153;33;20208;-66
2021/10/03 11:14:27;;;;;;;10.45;7.20;;;;;;;;;;4313340;33;20494;-66
2021/10/03 11:17:02;;;;;;;10.85;6.32;;;;;;;;;;4303544;33;20116;-67
2021/10/03 11:19:35;;;;;;;;;;;;;;;;;;4291419;33;20202;-67
2021/10/03 11:22:08;;;;;;;7.97;6.45;;;;;;;;;;4290038;33;19995;-68
2021/10/03 11:24:38;;;;;;;8.13;5.85;;;;;;;;;;4303946;33;20095;-68
2021/10/03 11:27:11;;;;;;;7.80;5.78;;;;;;;;;;4317725;33;20525;-67
2021/10/03 11:29:40;;;;;;;9.48;5.87;;;;;;;;;;4317867;33;20127;-68
2021/10/03 11:32:14;;;;;;;7.00;4.72;;;;;;;;;;4317796;33;20110;-68
2021/10/03 11:34:47;;;;;;;5.62;3.67;;;;;;;;;;4317844;33;20194;-68
2021/10/03 11:37:26;;;;;;;8.75;4.00;;;;;;;;;;4317452;33;20518;-68
2021/10/03 11:39:57;;;;;;;7.25;4.25;;;;;;;;;;4301797;33;20108;-67
2021/10/03 11:42:46;;;;;;;4.55;3.67;;;;;;;;;;4289652;33;20123;-67
2021/10/03 11:45:17;;;;;;;6.00;4.07;;;;;;;;;;4290067;33;20105;-67
2021/10/03 11:47:50;;;;;;;6.87;4.18;;;;;;;;;;4303118;33;20127;-67
2021/10/03 11:50:27;;;;;;;7.53;5.15;;;;;;;;;;4303288;33;20130;-68
2021/10/03 11:52:58;;;;;;;11.57;5.22;;;;;;;;;;4289977;33;20104;-68
2021/10/03 11:55:34;;;;;;;7.95;4.60;;;;;;;;;;4303197;33;20233;-68
2021/10/03 11:58:08;;;;;;;6.47;5.18;;;;;;;;;;4289731;33;20554;-68
2021/10/03 12:00:49;;;;;;;6.18;4.65;;;;;;;;;;4303392;33;20096;-67
2021/10/03 12:03:17;;;;;;;10.35;5.35;;;;;;;;;;4292134;33;20179;-68
2021/10/03 12:05:44;;;;;;;11.85;5.22;;;;;;;;;;4280368;33;20137;-67
2021/10/03 12:08:14;;;;;;;10.20;4.28;;;;;;;;;;4319531;33;20095;-69
2021/10/03 12:10:44;;;;;;;7.47;4.60;;;;;;;;;;4320268;33;20179;-69
2021/10/03 12:13:17;;;;;;;6.65;4.20;;;;;;;;;;4319739;33;20119;-69
2021/10/03 12:16:13;;;;;;;6.40;4.00;;;;;;;;;;4319841;33;20115;-67
2021/10/03 12:18:46;;;;;;;7.32;4.70;;;;;;;;;;4304915;33;20130;-66
2021/10/03 12:21:17;;;;;;;8.88;5.10;;;;;;;;;;4315953;33;20122;-64
2021/10/03 12:23:59;;;;;;;9.27;5.00;;;;;;;;;;4304511;33;20190;-64
2021/10/03 12:26:36;;;;;;;7.32;5.50;;;;;;;;;;4304922;33;20212;-66
2021/10/03 12:29:08;;;;;;;6.85;5.07;;;;;;;;;;4319547;33;20083;-64
2021/10/03 12:31:58;;;;;;;9.27;5.05;;;;;;;;;;4305940;33;20115;-64
2021/10/03 12:34:30;;;;;;;12.20;5.20;;;;;;;;;;4307863;33;20209;-71
2021/10/03 12:36:59;;;;;;;6.57;4.90;;;;;;;;;;4305885;33;20215;-68
2021/10/03 12:39:31;;;;;;;6.68;4.55;;;;;;;;;;4306439;33;20129;-68
2021/10/03 12:42:03;;;;;;;8.88;4.80;;;;;;;;;;4319385;33;20106;-66
2021/10/03 12:44:33;;;;;;;13.32;4.82;;;;;;;;;;4319370;33;20482;-68
2021/10/03 12:47:00;;;;;;;6.60;4.97;;;;;;;;;;4319585;33;20446;-65
2021/10/03 12:49:27;;;;;;;10.20;5.57;;;;;;;;;;4319092;33;20178;-64
2021/10/03 12:51:54;;;;;;;7.00;5.15;;;;;;;;;;4306071;33;20194;-64
2021/10/03 12:54:20;;;;;;;7.78;4.78;;;;;;;;;;4305615;33;20138;-65
2021/10/03 12:56:46;;;;;;;9.60;4.90;;;;;;;;;;4305665;33;20507;-65
2021/10/03 12:59:12;;;;;;;8.50;6.00;;;;;;;;;;4305780;33;20102;-65
2021/10/03 13:01:39;;;;;;;7.55;5.90;;;;;;;;;;4305546;33;20127;-66
2021/10/03 13:04:05;;;;;;;8.40;5.43;;;;;;;;;;4319034;33;20119;-65
2021/10/03 13:06:31;;;;;;;8.98;5.35;;;;;;;;;;4305291;33;20115;-63
2021/10/03 13:08:57;;;;;;;7.12;4.93;;;;;;;;;;4305482;33;20108;-64
2021/10/03 13:11:23;;;;;;;8.55;4.75;;;;;;;;;;4318416;33;20119;-65
2021/10/03 13:13:50;;;;;;;7.43;4.90;;;;;;;;;;4316803;33;20162;-64
2021/10/03 13:16:17;;;;;;;8.98;6.25;;;;;;;;;;4304660;33;20094;-66
2021/10/03 13:18:44;;;;;;;12.68;8.40;;;;;;;;;;4296760;33;20111;-66
2021/10/03 13:21:11;;;;;;;16.10;10.50;;;;;;;;;;4305567;33;20099;-66
2021/10/03 13:23:49;;;;;;;20.65;11.00;;;;;;;;;;4319564;33;20200;-66
2021/10/03 13:27:00;;;;;;;16.40;10.38;;;;;;;;;;4311271;33;20185;-66
2021/10/03 13:33:35;;;;;;;11.50;7.57;;;;;;;;;;4315943;33;20211;-66
2021/10/03 13:36:03;;;;;;;11.27;6.85;;;;;;;;;;4314877;33;20092;-67
2021/10/03 13:38:30;;;;;;;9.02;5.82;;;;;;;;;;4322219;33;20113;-68
2021/10/03 13:41:01;;;;;;;9.15;6.10;;;;;;;;;;4291433;33;20134;-69
2021/10/03 13:43:32;;;;;;;15.77;7.75;;;;;;;;;;4325190;33;20527;-71
2021/10/03 13:45:59;;;;;;;18.70;8.38;;;;;;;;;;4318171;33;20095;-70
2021/10/03 13:48:27;;;;;;;24.33;8.40;;;;;;;;;;4316977;33;20113;-71
2021/10/03 13:50:53;;;;;;;12.88;8.05;;;;;;;;;;4314946;33;20205;-70
2021/10/03 13:53:19;;;;;;;16.08;7.55;;;;;;;;;;4326418;33;20103;-69
2021/10/03 13:55:48;;;;;;;13.13;8.07;;;;;;;;;;4318846;33;20129;-73
2021/10/03 13:58:15;;;;;;;16.77;8.75;;;;;;;;;;4317287;33;20102;-69
2021/10/03 14:00:41;;;;;;;11.20;6.05;;;;;;;;;;4318520;33;20130;-69
2021/10/03 14:03:07;;;;;;;9.07;5.07;;;;;;;;;;4329617;33;20113;-69
2021/10/03 14:05:33;;;;;;;6.00;4.45;;;;;;;;;;4333490;33;20170;-70
2021/10/03 14:07:59;;;;;;;5.15;4.12;;;;;;;;;;4332904;33;20129;-70
2021/10/03 14:10:25;;;;;;;7.37;4.20;;;;;;;;;;4319570;33;20117;-71
2021/10/03 14:12:51;;;;;;;4.60;3.58;;;;;;;;;;4332973;33;20149;-72
2021/10/03 14:15:17;;;;;;;4.30;3.67;;;;;;;;;;4333362;33;20122;-70
2021/10/03 14:17:47;;;;;;;4.72;3.60;;;;;;;;;;4332947;33;20156;-67
2021/10/03 14:20:13;;;;;;;6.70;3.47;;;;;;;;;;4320670;33;20114;-67
2021/10/03 14:22:39;;;;;;;5.18;3.95;;;;;;;;;;4331804;33;20198;-68
2021/10/03 14:25:06;;;;;;;5.60;3.58;;;;;;;;;;4326815;33;20530;-66
2021/10/03 14:27:32;;;;;;;4.12;2.92;;;;;;;;;;4325155;33;20117;-65
2021/10/03 14:29:57;;;;;;;4.62;3.40;;;;;;;;;;4321605;33;20107;-70
2021/10/03 14:32:24;;;;;;;6.62;3.87;;;;;;;;;;4331521;33;20118;-67
2021/10/03 14:34:50;;;;;;;11.90;3.60;;;;;;;;;;4317508;33;20205;-65
2021/10/03 14:37:16;;;;;;;7.43;3.80;;;;;;;;;;4318274;33;20110;-65
2021/10/03 14:39:42;;;;;;;5.12;3.30;;;;;;;;;;4318372;33;20601;-65
2021/10/03 14:42:08;;;;;;;7.47;3.67;;;;;;;;;;4318500;33;20103;-64
2021/10/03 14:44:34;;;;;;;7.20;3.53;;;;;;;;;;4313910;33;20184;-65
2021/10/03 14:47:00;;;;;;;6.97;3.83;;;;;;;;;;4319302;33;20114;-65
2021/10/03 14:49:26;;;;;;;9.07;3.53;;;;;;;;;;4319369;33;20119;-64
2021/10/03 14:51:53;;;;;;;6.20;3.40;;;;;;;;;;4319327;33;20114;-64
2021/10/03 14:54:22;;;;;;;6.60;3.58;;;;;;;;;;4332948;33;20111;-64
2021/10/03 14:56:48;;;;;;;4.12;3.17;;;;;;;;;;4319137;33;20197;-64
2021/10/03 14:59:14;;;;;;;4.18;3.37;;;;;;;;;;4334563;33;20107;-62
2021/10/03 15:01:40;;;;;;;10.32;4.03;;;;;;;;;;4326756;33;20458;-66
2021/10/03 15:04:06;;;;;;;3.72;2.70;;;;;;;;;;4319797;33;20121;-65
2021/10/03 15:06:32;;;;;;;6.10;2.90;;;;;;;;;;4318900;33;20205;-65
2021/10/03 15:08:58;;;;;;;4.87;3.95;;;;;;;;;;4318325;33;20316;-64
2021/10/03 15:11:24;;;;;;;4.65;3.62;;;;;;;;;;4304445;33;20186;-65